createdAt,value
2022-08-08T00:02:03.715Z,100165.87
2022-08-08T00:04:40.481Z,100163.94
2022-08-08T00:07:42.435Z,100152.13
2022-08-08T00:10:28.425Z,100143.50
2022-08-08T00:14:14.699Z,100138.91
2022-08-08T00:16:57.058Z,100134.12
2022-08-08T00:19:35.980Z,100139.53
2022-08-08T00:22:10.587Z,100142.31
2022-08-08T00:24:42.807Z,100145.34
2022-08-08T00:27:13.835Z,100148.56
2022-08-08T00:29:48.542Z,100144.72
2022-08-08T00:35:25.501Z,100133.25
2022-08-08T00:38:01.781Z,100128.59
2022-08-08T00:41:12.009Z,100125.34
2022-08-08T00:54:42.867Z,100106.47
2022-08-08T01:00:10.718Z,100123.41
2022-08-08T01:04:00.237Z,100127.28
2022-08-08T01:06:27.247Z,100123.88
2022-08-08T01:09:34.793Z,100127.09
2022-08-08T01:12:11.807Z,100121.53
2022-08-08T01:14:57.469Z,100119.97
2022-08-08T01:26:20.355Z,100103.09
2022-08-08T01:29:09.430Z,100103.75
2022-08-08T01:32:13.483Z,100110.19
2022-08-08T01:35:29.859Z,100113.19
2022-08-08T01:38:18.367Z,100103.59
2022-08-08T01:41:05.255Z,100100.94
2022-08-08T01:43:50.594Z,100087.97
2022-08-08T01:46:47.396Z,100090.50
2022-08-08T01:49:37.546Z,100089.84
2022-08-08T01:53:28.931Z,100089.72
2022-08-08T01:55:45.986Z,100080.19
2022-08-08T01:58:47.111Z,100081.94
2022-08-08T02:01:59.937Z,100084.06
2022-08-08T02:04:54.051Z,100094.97
2022-08-08T02:07:41.813Z,100097.81
2022-08-08T02:10:46.166Z,100096.62
2022-08-08T02:13:52.720Z,100097.16
2022-08-08T02:16:44.881Z,100107.12
2022-08-08T02:19:41.771Z,100116.31
2022-08-08T02:22:33.526Z,100114.25
2022-08-08T02:25:21.500Z,100110.84
2022-08-08T02:28:10.558Z,100106.47
2022-08-08T02:32:00.799Z,100111.97
2022-08-08T02:35:18.316Z,100121.47
2022-08-08T02:38:25.295Z,100128.22
2022-08-08T02:41:57.942Z,100128.41
2022-08-08T02:44:37.409Z,100138.72
2022-08-08T03:19:21.621Z,100135.47
2022-08-08T03:21:58.165Z,100135.50
2022-08-08T03:24:34.621Z,100141.19
2022-08-08T03:27:27.502Z,100148.22
2022-08-08T03:30:07.906Z,100142.28
2022-08-08T03:32:59.943Z,100150.94
2022-08-08T03:35:40.351Z,100152.84
2022-08-08T03:38:54.462Z,100151.31
2022-08-08T03:42:12.167Z,100155.50
2022-08-08T03:44:35.585Z,100154.63
2022-08-08T03:47:07.165Z,100155.41
2022-08-08T03:49:58.607Z,100157.22
2022-08-08T03:52:35.211Z,100157.38
2022-08-08T04:00:53.941Z,100131.72
2022-08-08T04:03:25.790Z,100137.81
2022-08-08T04:08:32.930Z,100148.84
2022-08-08T04:11:11.506Z,100157.81
2022-08-08T04:14:35.723Z,100152.37
2022-08-08T04:17:57.745Z,100153.91
2022-08-08T04:20:28.756Z,100160.47
2022-08-08T04:22:58.161Z,100164.59
2022-08-08T04:25:29.773Z,100163.13
2022-08-08T04:28:10.614Z,100163.34
2022-08-08T04:30:44.335Z,100167.69
2022-08-08T04:33:27.092Z,100169.84
2022-08-08T04:38:57.229Z,100174.00
2022-08-08T04:44:58.496Z,100183.25
2022-08-08T05:08:21.971Z,100185.22
2022-08-08T05:13:30.709Z,100191.56
2022-08-08T05:16:55.525Z,100193.69
2022-08-08T05:18:44.848Z,100183.94
2022-08-08T05:21:14.396Z,100177.22
2022-08-08T05:24:41.389Z,100177.78
2022-08-08T05:27:44.857Z,100183.63
2022-08-08T05:30:11.983Z,100184.22
2022-08-08T05:32:39.922Z,100205.75
2022-08-08T05:35:07.697Z,100202.78
2022-08-08T05:37:53.904Z,100202.28
2022-08-08T05:40:28.065Z,100208.72
2022-08-08T05:43:17.185Z,100200.56
2022-08-08T05:46:01.930Z,100198.69
2022-08-08T05:48:33.020Z,100198.62
2022-08-08T05:51:14.487Z,100201.28
2022-08-08T05:54:24.582Z,100200.00
2022-08-08T05:56:50.949Z,100198.22
2022-08-08T06:07:23.863Z,100205.88
2022-08-08T06:12:50.936Z,100186.88
2022-08-08T06:20:28.124Z,100209.97
2022-08-08T06:22:57.836Z,100207.69
2022-08-08T06:26:34.879Z,100209.38
2022-08-08T06:28:29.025Z,100209.25
2022-08-08T06:31:00.309Z,100200.53
2022-08-08T06:37:36.819Z,100199.94
2022-08-08T06:40:14.238Z,100214.44
2022-08-08T06:43:19.491Z,100213.56
2022-08-08T06:45:48.227Z,100208.00
2022-08-08T06:48:16.007Z,100210.72
2022-08-08T06:58:50.998Z,100210.03
2022-08-08T07:02:16.256Z,100214.16
2022-08-08T07:04:45.426Z,100217.25
2022-08-08T07:11:30.226Z,100227.19
2022-08-08T07:23:29.524Z,100223.84
2022-08-08T07:49:04.786Z,100244.44
2022-08-08T07:51:45.083Z,100242.22
2022-08-08T07:54:33.605Z,100254.47
2022-08-08T07:57:22.006Z,100247.37
2022-08-08T08:00:15.941Z,100248.31
2022-08-08T08:03:02.042Z,100251.13
2022-08-08T08:05:33.530Z,100255.72
2022-08-08T08:38:49.765Z,100256.28
2022-08-08T08:41:19.941Z,100277.37
2022-08-08T08:43:50.232Z,100283.06
2022-08-08T08:46:20.307Z,100282.94
2022-08-08T08:48:54.634Z,100279.84
2022-08-08T09:02:31.571Z,100284.72
2022-08-08T09:05:03.665Z,100279.94
2022-08-08T09:07:39.572Z,100285.72
2022-08-08T09:10:31.864Z,100288.66
2022-08-08T09:13:01.886Z,100288.59
2022-08-08T09:15:40.768Z,100288.31
2022-08-08T09:18:09.621Z,100286.56
2022-08-08T09:21:58.841Z,100290.63
2022-08-08T09:23:37.984Z,100293.47
2022-08-08T09:27:05.450Z,100299.47
2022-08-08T09:33:54.855Z,100289.97
2022-08-08T09:35:53.063Z,100278.44
2022-08-08T09:38:59.830Z,100276.31
2022-08-08T09:42:14.305Z,100282.81
2022-08-08T09:44:40.677Z,100281.50
2022-08-08T09:47:26.028Z,100268.38
2022-08-08T09:50:04.762Z,100260.69
2022-08-08T09:52:55.470Z,100257.31
2022-08-08T09:58:36.105Z,100262.09
2022-08-08T10:04:47.408Z,100258.59
2022-08-08T10:16:00.633Z,100270.22
2022-08-08T10:21:25.145Z,100263.22
2022-08-08T10:23:59.880Z,100266.34
2022-08-08T10:26:52.429Z,100278.22
2022-08-08T10:29:44.049Z,100270.87
2022-08-08T10:32:34.034Z,100268.47
2022-08-08T10:51:31.113Z,100257.91
2022-08-08T10:54:21.000Z,100248.62
2022-08-08T10:57:08.896Z,100253.59
2022-08-08T10:59:39.850Z,100248.19
2022-08-08T11:02:08.233Z,100252.66
2022-08-08T11:04:53.533Z,100252.44
2022-08-08T11:08:18.623Z,100247.75
2022-08-08T11:13:52.143Z,100252.22
2022-08-08T11:16:32.355Z,100262.78
2022-08-08T11:21:41.089Z,100262.53
2022-08-08T11:24:11.242Z,100253.84
2022-08-08T11:26:53.817Z,100247.09
2022-08-08T11:29:51.147Z,100248.56
2022-08-08T11:32:29.143Z,100245.47
2022-08-08T11:35:24.401Z,100242.78
2022-08-08T11:51:30.327Z,100232.84
2022-08-08T11:54:01.459Z,100229.38
2022-08-08T11:56:34.587Z,100234.09
2022-08-08T11:59:09.695Z,100238.13
2022-08-08T12:02:09.733Z,100220.50
2022-08-08T12:04:42.271Z,100229.38
2022-08-08T12:07:17.818Z,100230.13
2022-08-08T12:09:59.453Z,100228.97
2022-08-08T12:23:51.637Z,100225.28
2022-08-08T12:26:36.622Z,100231.22
2022-08-08T12:29:21.314Z,100226.63
2022-08-08T12:32:02.854Z,100223.53
2022-08-08T12:34:37.070Z,100230.87
2022-08-08T12:37:41.065Z,100227.50
2022-08-08T12:40:24.533Z,100224.81
2022-08-08T13:06:23.074Z,100245.94
2022-08-08T13:08:56.123Z,100268.69
2022-08-08T13:12:26.791Z,100257.44
2022-08-08T13:22:46.074Z,100256.91
2022-08-08T13:25:22.355Z,100257.09
2022-08-08T13:31:21.325Z,100251.69
2022-08-08T13:33:49.853Z,100248.16
2022-08-08T13:36:18.071Z,100257.47
2022-08-08T13:38:52.582Z,100255.13
2022-08-08T13:41:19.525Z,100256.03
2022-08-08T13:43:50.649Z,100255.09
2022-08-08T13:46:32.902Z,100258.78
2022-08-08T13:50:33.674Z,100255.19
2022-08-08T13:51:56.322Z,100251.59
2022-08-08T14:55:41.412Z,100250.47
2022-08-08T14:58:16.072Z,100251.94
2022-08-08T15:00:47.900Z,100242.16
2022-08-08T15:03:17.242Z,100245.56
2022-08-08T15:05:53.496Z,100249.09
2022-08-08T15:08:34.653Z,100246.69
2022-08-08T15:12:15.585Z,100247.88
2022-08-08T15:16:03.306Z,100247.13
2022-08-08T15:18:14.529Z,100241.28
2022-08-08T15:20:46.491Z,100235.38
2022-08-08T15:23:16.422Z,100234.19
2022-08-08T15:25:43.259Z,100239.53
2022-08-08T15:28:33.740Z,100240.16
2022-08-08T15:31:25.918Z,100248.66
2022-08-08T15:39:15.944Z,100247.19
2022-08-08T15:41:44.005Z,100240.03
2022-08-08T15:44:34.639Z,100244.69
2022-08-08T15:47:31.411Z,100241.03
2022-08-08T15:50:20.900Z,100244.75
2022-08-08T16:31:32.630Z,100228.06
2022-08-08T16:33:59.625Z,100222.19
2022-08-08T16:36:33.624Z,100226.13
2022-08-08T16:39:09.640Z,100229.16
2022-08-08T16:41:51.341Z,100238.78
2022-08-08T16:44:28.143Z,100236.91
2022-08-08T16:47:21.650Z,100236.03
2022-08-08T17:00:26.492Z,100245.44
2022-08-08T17:02:54.051Z,100248.31
2022-08-08T17:05:20.673Z,100245.84
2022-08-08T17:07:51.226Z,100254.63
2022-08-08T17:10:19.504Z,100250.34
2022-08-08T17:12:58.163Z,100252.00
2022-08-08T17:15:24.766Z,100255.69
2022-08-08T17:18:04.120Z,100246.53
2022-08-08T17:20:38.206Z,100253.72
2022-08-08T17:23:18.177Z,100246.78
2022-08-08T17:25:54.686Z,100257.31
2022-08-08T17:32:21.239Z,100271.41
2022-08-08T17:35:54.348Z,100269.97
2022-08-08T17:37:51.796Z,100263.87
2022-08-08T17:40:20.104Z,100265.41
2022-08-08T17:42:50.626Z,100269.34
2022-08-08T17:45:23.678Z,100263.63
2022-08-08T17:48:11.350Z,100262.00
2022-08-08T17:50:41.746Z,100268.53
2022-08-08T17:53:08.383Z,100262.09
2022-08-08T17:56:05.690Z,100270.69
2022-08-08T17:58:23.167Z,100255.97
2022-08-08T18:00:57.125Z,100259.88
2022-08-08T18:04:20.984Z,100256.44
2022-08-08T18:08:03.500Z,100255.78
2022-08-08T18:10:10.560Z,100263.87
2022-08-08T18:12:37.418Z,100266.59
2022-08-08T18:15:04.256Z,100270.34
2022-08-08T18:18:04.903Z,100282.00
2022-08-08T18:20:43.933Z,100280.19
2022-08-08T18:23:24.704Z,100284.00
2022-08-08T18:25:51.325Z,100296.75
2022-08-08T18:28:23.329Z,100286.31
2022-08-08T18:30:50.947Z,100299.41
2022-08-08T18:33:19.970Z,100299.94
2022-08-08T18:36:04.847Z,100296.19
2022-08-08T18:42:04.317Z,100308.44
2022-08-08T18:44:34.802Z,100303.38
2022-08-08T18:47:03.214Z,100312.59
2022-08-08T18:49:41.082Z,100318.53
2022-08-08T18:52:22.727Z,100309.44
2022-08-08T18:55:00.809Z,100310.00
2022-08-08T18:57:42.117Z,100304.25
2022-08-08T19:00:16.474Z,100309.06
2022-08-08T19:02:48.532Z,100312.34
2022-08-08T19:05:31.834Z,100319.06
2022-08-08T19:08:24.358Z,100316.72
2022-08-08T19:10:56.347Z,100310.50
2022-08-08T19:13:24.437Z,100319.84
2022-08-08T19:15:52.093Z,100326.88
2022-08-08T19:18:33.616Z,100322.25
2022-08-08T19:21:29.466Z,100321.41
2022-08-08T19:23:57.038Z,100333.25
2022-08-08T19:26:30.500Z,100325.47
2022-08-08T19:28:58.462Z,100331.44
2022-08-08T19:31:31.328Z,100338.75
2022-08-08T19:34:30.333Z,100327.09
2022-08-08T19:36:52.086Z,100321.38
2022-08-08T19:39:19.385Z,100321.16
2022-08-08T19:41:46.373Z,100324.53
2022-08-08T19:44:26.798Z,100329.16
2022-08-08T19:47:01.669Z,100317.31
2022-08-08T19:49:36.478Z,100327.88
2022-08-08T19:52:05.641Z,100327.41
2022-08-08T19:54:32.420Z,100326.72
2022-08-08T19:56:59.014Z,100322.47
2022-08-08T19:59:31.098Z,100327.25
2022-08-08T20:02:04.601Z,100333.47
2022-08-08T20:04:35.541Z,100328.78
2022-08-08T20:08:27.097Z,100326.62
2022-08-08T20:09:55.855Z,100318.69
2022-08-08T20:12:32.065Z,100317.59
2022-08-08T20:15:14.309Z,100310.31
2022-08-08T20:17:43.665Z,100313.75
2022-08-08T20:20:16.018Z,100307.87
2022-08-08T20:22:46.607Z,100302.66
2022-08-08T20:25:20.257Z,100297.69
2022-08-08T20:27:49.241Z,100303.03
2022-08-08T20:30:52.614Z,100307.53
2022-08-08T20:33:08.182Z,100312.22
2022-08-08T20:35:59.083Z,100317.47
2022-08-08T20:38:32.641Z,100317.78
2022-08-08T20:41:12.254Z,100312.22
2022-08-08T20:43:48.168Z,100309.53
2022-08-08T20:46:15.936Z,100307.44
2022-08-08T20:48:44.178Z,100314.28
2022-08-08T20:51:10.920Z,100315.28
2022-08-08T20:53:59.755Z,100315.72
2022-08-08T20:56:35.723Z,100323.50
2022-08-08T20:59:12.305Z,100322.28
2022-08-08T21:02:06.602Z,100322.94
2022-08-08T21:04:27.833Z,100327.69
2022-08-08T21:06:55.934Z,100328.13
2022-08-08T21:09:22.945Z,100333.88
2022-08-08T21:11:52.114Z,100324.81
2022-08-08T21:14:30.299Z,100329.28
2022-08-08T21:17:01.711Z,100321.47
2022-08-08T21:19:44.146Z,100327.09
2022-08-08T21:22:11.641Z,100331.16
2022-08-08T21:24:39.704Z,100344.59
2022-08-08T21:27:15.363Z,100342.84
2022-08-08T21:30:03.023Z,100341.72
2022-08-08T21:32:35.705Z,100336.34
2022-08-08T21:36:16.949Z,100334.53
2022-08-08T21:37:55.542Z,100341.00
2022-08-08T21:40:31.182Z,100343.19
2022-08-08T21:42:58.581Z,100345.78
2022-08-08T21:47:59.621Z,100357.75
2022-08-08T21:48:28.905Z,100347.41
2022-08-08T21:51:04.264Z,100359.81
2022-08-08T21:54:22.799Z,100366.19
2022-08-08T21:56:33.834Z,100364.97
2022-08-08T21:59:05.823Z,100362.34
2022-08-08T22:01:39.369Z,100369.88
2022-08-08T22:04:10.319Z,100376.19
2022-08-08T22:06:39.573Z,100379.25
2022-08-08T22:09:09.014Z,100374.84
2022-08-08T22:11:59.143Z,100375.84
2022-08-08T22:14:26.447Z,100363.09
2022-08-08T22:16:54.192Z,100354.81
2022-08-08T22:19:24.027Z,100358.81
2022-08-08T22:21:52.881Z,100356.31
2022-08-08T22:24:23.942Z,100354.34
2022-08-08T22:27:01.277Z,100351.50
2022-08-08T22:29:59.151Z,100356.56
2022-08-08T22:32:15.514Z,100350.47
2022-08-08T22:34:44.633Z,100342.03
2022-08-08T22:37:49.154Z,100351.16
2022-08-08T22:40:04.670Z,100355.87
2022-08-08T22:42:34.857Z,100351.59
2022-08-08T22:45:05.423Z,100354.81
2022-08-08T22:47:41.152Z,100355.19
2022-08-08T22:50:25.811Z,100364.25
2022-08-08T22:54:31.665Z,100355.44
2022-08-08T22:56:01.193Z,100358.25
2022-08-08T22:58:34.681Z,100339.66
2022-08-08T23:02:00.570Z,100344.03
2022-08-08T23:03:55.447Z,100341.50
2022-08-08T23:06:26.790Z,100336.00
2022-08-08T23:09:00.249Z,100343.22
2022-08-08T23:12:28.444Z,100347.59
2022-08-08T23:14:19.404Z,100353.59
2022-08-08T23:16:57.975Z,100361.75
2022-08-08T23:19:31.044Z,100356.66
2022-08-08T23:22:05.065Z,100358.72
2022-08-08T23:24:36.584Z,100357.78
2022-08-08T23:27:09.689Z,100366.56
2022-08-08T23:29:38.345Z,100364.84
2022-08-08T23:32:06.495Z,100366.56
2022-08-08T23:34:37.565Z,100367.13
2022-08-08T23:37:04.958Z,100365.66
2022-08-08T23:39:41.946Z,100369.22
2022-08-08T23:42:16.730Z,100383.97
2022-08-08T23:44:46.500Z,100393.13
2022-08-08T23:49:02.368Z,100393.81
2022-08-08T23:50:29.969Z,100386.37
2022-08-08T23:52:57.038Z,100377.81
2022-08-08T23:55:26.278Z,100377.75
2022-08-08T23:57:58.622Z,100381.00
